Time;durP1;ratioP1;P1;durP2;ratioP2;P2;SDS_P1;SDS_P2;PMS_P1;PMS_P2;Temp;Humidity;BMP_temperature;BMP_pressure;BME280_temperature;BME280_humidity;BME280_pressure;Samples;Min_cycle;Max_cycle;Signal;HPM_P1;HPM_P2
2023/09/21 00:01:43;;;;;;;3.25;1.60;;;19.50;99.90;;;;;;4953533;28;20434;-70
2023/09/21 00:04:09;;;;;;;3.30;1.73;;;19.50;99.90;;;;;;4952944;28;20038;-70
2023/09/21 00:06:36;;;;;;;5.88;1.90;;;19.50;99.90;;;;;;4953300;28;20019;-70
2023/09/21 00:09:02;;;;;;;4.43;1.58;;;19.50;99.90;;;;;;4954883;28;20391;-70
2023/09/21 00:11:30;;;;;;;4.43;1.90;;;19.40;99.90;;;;;;4971667;28;20023;-71
2023/09/21 00:13:56;;;;;;;3.30;1.70;;;19.40;99.90;;;;;;4956379;28;20031;-70
2023/09/21 00:16:25;;;;;;;4.45;1.77;;;19.40;99.90;;;;;;4956890;28;20397;-70
2023/09/21 00:18:51;;;;;;;2.22;1.50;;;19.30;99.90;;;;;;4956209;28;20027;-70
2023/09/21 00:21:17;;;;;;;5.45;2.00;;;19.30;99.90;;;;;;4956726;28;20038;-70
2023/09/21 00:23:44;;;;;;;3.45;1.80;;;19.30;99.90;;;;;;4955982;28;20031;-70
2023/09/21 00:26:10;;;;;;;3.75;1.65;;;19.30;99.90;;;;;;4956906;28;20029;-70
2023/09/21 00:28:36;;;;;;;2.75;1.80;;;19.30;99.90;;;;;;4956031;28;20031;-70
2023/09/21 00:31:02;;;;;;;3.30;1.50;;;19.30;99.90;;;;;;4956436;28;20045;-70
2023/09/21 00:33:29;;;;;;;4.00;1.80;;;19.30;99.90;;;;;;4955939;28;20391;-70
2023/09/21 00:35:58;;;;;;;3.60;1.52;;;19.20;99.90;;;;;;4956441;28;20553;-71
2023/09/21 00:38:24;;;;;;;3.08;1.77;;;19.20;99.90;;;;;;4955722;28;20046;-71
2023/09/21 00:40:55;;;;;;;2.92;1.77;;;19.20;99.90;;;;;;4971101;28;20102;-70
2023/09/21 00:43:25;;;;;;;2.97;2.10;;;19.20;99.90;;;;;;4954506;29;20059;-70
2023/09/21 00:45:53;;;;;;;2.75;1.60;;;19.20;99.90;;;;;;4956419;28;20027;-70
2023/09/21 00:48:33;;;;;;;5.25;2.30;;;19.20;99.90;;;;;;4955842;28;20094;-70
2023/09/21 00:51:01;;;;;;;5.35;2.00;;;19.20;99.90;;;;;;4956203;28;20020;-71
2023/09/21 00:53:28;;;;;;;2.90;1.67;;;19.20;99.90;;;;;;4955849;28;20110;-70
2023/09/21 00:56:02;;;;;;;3.83;1.80;;;19.20;99.90;;;;;;4956193;28;20378;-70
2023/09/21 00:58:29;;;;;;;5.57;1.60;;;19.20;99.90;;;;;;4954204;29;20118;-70
2023/09/21 01:00:55;;;;;;;2.85;1.70;;;19.20;99.90;;;;;;4956080;28;20161;-70
2023/09/21 01:03:22;;;;;;;5.07;1.80;;;19.20;99.90;;;;;;4970217;28;20024;-71
2023/09/21 01:05:51;;;;;;;3.65;1.90;;;19.20;99.90;;;;;;4956119;28;20054;-70
2023/09/21 01:08:21;;;;;;;4.10;1.55;;;19.10;99.90;;;;;;4955193;28;20513;-70
2023/09/21 01:10:50;;;;;;;3.67;1.67;;;19.10;99.90;;;;;;4956105;28;20051;-70
2023/09/21 01:13:17;;;;;;;4.00;1.70;;;19.20;99.90;;;;;;4955220;28;20023;-70
2023/09/21 01:16:04;;;;;;;5.00;2.30;;;19.10;99.90;;;;;;4955884;28;20030;-70
2023/09/21 01:18:31;;;;;;;3.20;1.70;;;19.10;99.90;;;;;;4955061;29;20033;-70
2023/09/21 01:21:04;;;;;;;3.72;1.50;;;19.10;99.90;;;;;;4955018;28;20059;-70
2023/09/21 01:23:45;;;;;;;2.60;1.35;;;19.10;99.90;;;;;;4955116;28;20031;-70
2023/09/21 01:26:16;;;;;;;4.50;1.90;;;19.10;99.90;;;;;;4955630;28;20033;-70
2023/09/21 01:28:43;;;;;;;2.47;1.48;;;19.10;99.90;;;;;;4954981;28;20328;-70
2023/09/21 01:31:13;;;;;;;4.07;1.88;;;19.10;99.90;;;;;;4955824;28;20023;-70
2023/09/21 01:33:39;;;;;;;5.23;2.23;;;19.10;99.90;;;;;;4955159;28;20023;-70
2023/09/21 01:36:08;;;;;;;4.05;1.73;;;19.10;99.90;;;;;;4955532;28;20038;-70
2023/09/21 01:38:35;;;;;;;4.63;1.75;;;19.00;99.90;;;;;;4969596;28;20016;-70
2023/09/21 01:41:00;;;;;;;3.85;1.55;;;19.00;99.90;;;;;;4955157;28;20168;-70
2023/09/21 01:43:26;;;;;;;4.85;2.10;;;19.10;99.90;;;;;;4955090;29;20499;-70
2023/09/21 01:45:52;;;;;;;4.43;1.75;;;19.10;99.90;;;;;;4955434;29;20027;-70
2023/09/21 01:48:18;;;;;;;3.40;1.60;;;19.00;99.90;;;;;;4954528;29;20533;-70
2023/09/21 01:50:50;;;;;;;5.05;1.55;;;19.00;99.90;;;;;;4955036;29;20035;-70
2023/09/21 01:53:21;;;;;;;5.05;1.52;;;19.10;99.90;;;;;;4937252;29;20049;-70
2023/09/21 01:55:49;;;;;;;4.45;1.50;;;19.10;99.90;;;;;;4955105;29;20486;-70
2023/09/21 01:58:16;;;;;;;5.50;2.00;;;19.10;99.90;;;;;;4954343;29;20422;-70
2023/09/21 02:00:43;;;;;;;3.05;1.52;;;19.20;99.90;;;;;;4954866;29;20023;-70
2023/09/21 02:03:12;;;;;;;3.35;1.80;;;19.10;99.90;;;;;;4954335;29;20446;-70
2023/09/21 02:05:42;;;;;;;2.47;1.60;;;19.20;99.90;;;;;;4954839;29;20031;-70
2023/09/21 02:08:11;;;;;;;5.20;1.58;;;19.20;99.90;;;;;;4954531;28;20062;-70
2023/09/21 02:10:38;;;;;;;3.15;1.60;;;19.20;99.90;;;;;;4937544;29;20052;-70
2023/09/21 02:13:07;;;;;;;3.17;1.55;;;19.20;99.90;;;;;;4954097;29;20098;-70
2023/09/21 02:15:37;;;;;;;3.33;1.50;;;19.20;99.90;;;;;;4954612;29;20019;-70
2023/09/21 02:18:04;;;;;;;4.95;1.77;;;19.20;99.90;;;;;;4936988;29;20073;-70
2023/09/21 02:20:30;;;;;;;4.18;1.50;;;19.20;99.90;;;;;;4954599;29;20027;-70
2023/09/21 02:23:00;;;;;;;5.82;2.05;;;19.20;99.90;;;;;;4953798;29;20074;-70
2023/09/21 02:25:39;;;;;;;3.85;1.60;;;19.20;99.90;;;;;;4954523;29;20031;-70
2023/09/21 02:28:09;;;;;;;2.72;1.50;;;19.30;99.90;;;;;;4953823;29;20035;-70
2023/09/21 02:30:37;;;;;;;2.97;1.50;;;19.30;99.90;;;;;;4937145;29;20374;-70
2023/09/21 02:33:06;;;;;;;4.32;1.80;;;19.30;99.90;;;;;;4935709;29;20015;-70
2023/09/21 02:35:33;;;;;;;4.00;1.60;;;19.30;99.90;;;;;;4954407;29;20029;-70
2023/09/21 02:38:00;;;;;;;3.10;1.65;;;19.30;99.90;;;;;;4953983;29;20438;-70
2023/09/21 02:40:25;;;;;;;2.83;1.42;;;19.30;99.90;;;;;;4954325;29;20470;-70
2023/09/21 02:42:54;;;;;;;3.90;1.48;;;19.30;99.90;;;;;;4953726;29;20081;-70
2023/09/21 02:45:24;;;;;;;2.22;1.42;;;19.30;99.90;;;;;;4954337;29;20031;-70
2023/09/21 02:47:54;;;;;;;3.40;1.75;;;19.30;99.90;;;;;;4953695;29;20024;-70
2023/09/21 02:50:25;;;;;;;4.30;2.00;;;19.30;99.90;;;;;;4954040;29;20056;-70
2023/09/21 02:52:55;;;;;;;2.30;1.40;;;19.30;99.90;;;;;;4953550;29;20022;-70
2023/09/21 02:55:28;;;;;;;3.03;1.65;;;19.40;99.90;;;;;;4954081;29;20553;-70
2023/09/21 02:58:10;;;;;;;3.03;1.40;;;19.40;99.90;;;;;;4953614;29;20030;-70
2023/09/21 03:00:42;;;;;;;2.92;1.50;;;19.50;99.90;;;;;;4936796;29;20058;-70
2023/09/21 03:03:10;;;;;;;3.92;1.52;;;19.50;99.90;;;;;;4953738;29;20023;-71
2023/09/21 03:05:38;;;;;;;3.53;1.67;;;19.60;99.90;;;;;;4953957;29;20027;-70
2023/09/21 03:08:05;;;;;;;3.72;1.50;;;19.60;99.90;;;;;;4953413;28;20162;-70
2023/09/21 03:10:31;;;;;;;3.22;1.88;;;19.60;99.90;;;;;;4952599;29;20023;-70
2023/09/21 03:12:57;;;;;;;4.88;1.85;;;19.60;99.90;;;;;;4953135;29;20026;-70
2023/09/21 03:15:23;;;;;;;3.05;1.23;;;19.60;99.90;;;;;;4954086;29;20020;-70
2023/09/21 03:17:53;;;;;;;3.97;1.35;;;19.60;99.90;;;;;;4953407;29;20422;-70
2023/09/21 03:20:29;;;;;;;4.32;1.58;;;19.60;99.90;;;;;;4936622;29;20023;-70
2023/09/21 03:22:59;;;;;;;3.15;1.65;;;19.60;99.90;;;;;;4953417;29;20023;-70
2023/09/21 03:25:25;;;;;;;3.85;1.75;;;19.60;99.90;;;;;;4953747;29;20042;-70
2023/09/21 03:27:55;;;;;;;5.22;2.05;;;19.60;99.90;;;;;;4953279;29;20024;-70
2023/09/21 03:30:23;;;;;;;2.47;1.47;;;19.70;99.90;;;;;;4953679;29;20106;-70
2023/09/21 03:32:49;;;;;;;4.70;1.73;;;19.70;99.90;;;;;;4953333;29;20305;-70
2023/09/21 03:35:15;;;;;;;4.97;1.42;;;19.70;99.90;;;;;;4953417;29;20026;-70
2023/09/21 03:37:43;;;;;;;2.92;1.45;;;19.70;99.90;;;;;;4935971;29;20027;-70
2023/09/21 03:40:10;;;;;;;2.67;1.58;;;19.70;99.90;;;;;;4952243;28;20039;-70
2023/09/21 03:42:36;;;;;;;3.35;1.83;;;19.70;99.90;;;;;;4953425;28;20036;-70
2023/09/21 03:45:07;;;;;;;4.90;1.90;;;19.70;99.90;;;;;;4956914;28;20497;-70
2023/09/21 03:47:33;;;;;;;2.50;1.95;;;19.70;99.90;;;;;;4955984;29;20034;-70
2023/09/21 03:50:00;;;;;;;3.00;1.63;;;19.70;99.90;;;;;;4956804;28;20020;-70
2023/09/21 03:52:27;;;;;;;2.92;1.70;;;19.70;99.90;;;;;;4957211;28;20047;-70
2023/09/21 03:54:54;;;;;;;2.08;1.33;;;19.70;99.90;;;;;;4956564;28;20019;-70
2023/09/21 03:57:22;;;;;;;3.03;1.35;;;19.70;99.90;;;;;;4956055;29;20110;-70
2023/09/21 03:59:48;;;;;;;3.95;1.70;;;19.70;99.90;;;;;;4955523;29;20402;-69
2023/09/21 04:02:14;;;;;;;3.20;1.60;;;19.70;99.90;;;;;;4957236;29;20023;-69
2023/09/21 04:04:41;;;;;;;2.97;1.40;;;19.70;99.90;;;;;;4956368;29;20015;-69
2023/09/21 04:07:12;;;;;;;1.73;1.48;;;19.70;99.90;;;;;;4956937;28;20038;-69
2023/09/21 04:09:38;;;;;;;;;;;19.60;99.90;;;;;;4956611;28;20505;-70
2023/09/21 04:12:04;;;;;;;2.15;1.38;;;19.60;99.90;;;;;;4957116;28;19910;-70
2023/09/21 04:14:30;;;;;;;4.10;1.48;;;19.60;99.90;;;;;;4956459;28;20023;-70
2023/09/21 04:16:55;;;;;;;2.13;1.30;;;19.60;99.90;;;;;;4956751;28;20493;-70
2023/09/21 04:19:22;;;;;;;4.88;1.50;;;19.60;99.90;;;;;;4956260;28;20115;-69
2023/09/21 04:21:48;;;;;;;4.10;1.63;;;19.60;99.90;;;;;;4956721;28;20035;-70
2023/09/21 04:24:14;;;;;;;4.70;2.00;;;19.60;99.90;;;;;;4956102;28;20505;-69
2023/09/21 04:26:40;;;;;;;4.60;1.60;;;19.50;99.90;;;;;;4956657;28;20023;-70
2023/09/21 04:29:07;;;;;;;3.03;1.80;;;19.50;99.90;;;;;;4970866;28;20034;-70
2023/09/21 04:31:32;;;;;;;4.55;1.80;;;19.50;99.90;;;;;;4956406;28;20517;-70
2023/09/21 04:33:58;;;;;;;4.53;1.67;;;19.50;99.90;;;;;;4955882;29;20061;-70
2023/09/21 04:36:26;;;;;;;4.50;2.00;;;19.50;99.90;;;;;;4956529;28;20043;-70
2023/09/21 04:38:55;;;;;;;4.35;1.52;;;19.50;99.90;;;;;;4955781;28;20031;-69
2023/09/21 04:41:21;;;;;;;3.42;1.63;;;19.50;99.90;;;;;;4956283;29;20046;-70
2023/09/21 04:43:48;;;;;;;3.30;1.65;;;19.50;99.90;;;;;;4955667;29;20027;-70
2023/09/21 04:46:14;;;;;;;2.47;1.42;;;19.50;99.90;;;;;;4956420;29;20405;-71
2023/09/21 04:48:40;;;;;;;5.20;1.80;;;19.50;99.90;;;;;;4955622;29;20110;-71
2023/09/21 04:51:08;;;;;;;5.40;1.80;;;19.50;99.90;;;;;;4956096;29;20094;-70
2023/09/21 04:53:34;;;;;;;3.50;1.58;;;19.50;99.90;;;;;;4955514;29;20023;-70
2023/09/21 04:55:59;;;;;;;3.15;1.95;;;19.50;99.90;;;;;;4955031;28;20102;-70
2023/09/21 04:58:26;;;;;;;3.00;2.05;;;19.50;99.90;;;;;;4955648;29;20019;-71
2023/09/21 05:00:51;;;;;;;4.10;2.00;;;19.40;99.90;;;;;;4956018;29;20030;-70
2023/09/21 05:03:17;;;;;;;3.78;2.08;;;19.40;99.90;;;;;;4955403;29;20027;-71
2023/09/21 05:05:43;;;;;;;4.88;1.80;;;19.40;99.90;;;;;;4955912;29;20154;-70
2023/09/21 05:08:09;;;;;;;4.40;1.70;;;19.30;99.90;;;;;;4938120;29;20122;-71
2023/09/21 05:10:35;;;;;;;2.95;1.83;;;19.40;99.90;;;;;;4955528;29;20496;-70
2023/09/21 05:13:02;;;;;;;11.50;2.05;;;19.40;99.90;;;;;;4955469;29;20038;-70
2023/09/21 05:15:28;;;;;;;2.97;1.80;;;19.40;99.90;;;;;;4956008;29;20032;-70
2023/09/21 05:17:53;;;;;;;3.92;1.80;;;19.40;99.90;;;;;;4955591;29;20030;-71
2023/09/21 05:20:19;;;;;;;5.05;1.67;;;19.30;99.90;;;;;;4955114;29;20027;-70
2023/09/21 05:22:47;;;;;;;2.60;1.75;;;19.30;99.90;;;;;;4938257;29;20122;-70
2023/09/21 05:25:13;;;;;;;3.75;1.63;;;19.30;99.90;;;;;;4955149;29;20047;-71
2023/09/21 05:27:41;;;;;;;3.63;2.08;;;19.30;99.90;;;;;;4955601;29;20133;-71
2023/09/21 05:30:09;;;;;;;3.25;2.00;;;19.30;99.90;;;;;;4937521;29;20031;-71
2023/09/21 05:32:35;;;;;;;6.45;1.95;;;19.30;99.90;;;;;;4955562;29;20094;-71
2023/09/21 05:35:02;;;;;;;3.25;1.63;;;19.20;99.90;;;;;;4954901;29;20086;-71
2023/09/21 05:37:29;;;;;;;3.13;1.70;;;19.20;99.90;;;;;;4955470;29;20106;-71
2023/09/21 05:39:55;;;;;;;4.45;1.90;;;19.20;99.90;;;;;;4937365;29;20023;-71
2023/09/21 05:42:23;;;;;;;3.83;1.60;;;19.20;99.90;;;;;;4955324;29;20079;-71
2023/09/21 05:44:49;;;;;;;4.20;1.95;;;19.20;99.90;;;;;;4954985;29;20027;-71
2023/09/21 05:47:15;;;;;;;3.95;1.42;;;19.20;99.90;;;;;;4955639;29;20043;-71
2023/09/21 05:49:41;;;;;;;5.13;1.77;;;19.20;99.90;;;;;;4937345;29;20419;-71
2023/09/21 05:52:13;;;;;;;3.17;1.80;;;19.20;99.90;;;;;;4954952;29;20442;-71
2023/09/21 05:54:40;;;;;;;3.58;1.60;;;19.20;99.90;;;;;;4954423;29;20079;-70
2023/09/21 05:57:06;;;;;;;3.63;1.70;;;19.20;99.90;;;;;;4955027;29;20051;-72
2023/09/21 05:59:31;;;;;;;4.32;1.95;;;19.20;99.90;;;;;;4954239;29;20394;-71
2023/09/21 06:02:05;;;;;;;2.97;1.95;;;19.30;99.90;;;;;;4954875;29;20055;-71
2023/09/21 06:04:30;;;;;;;3.80;1.70;;;19.20;99.90;;;;;;4954233;29;20051;-71
2023/09/21 06:06:58;;;;;;;2.85;1.77;;;19.20;99.90;;;;;;4954552;28;20057;-70
2023/09/21 06:09:24;;;;;;;2.28;1.60;;;19.20;99.90;;;;;;4954350;29;20122;-71
2023/09/21 06:11:50;;;;;;;4.32;2.00;;;19.20;99.90;;;;;;4954640;29;20482;-70
2023/09/21 06:14:17;;;;;;;5.05;1.73;;;19.20;99.90;;;;;;4954062;29;20027;-71
2023/09/21 06:16:43;;;;;;;5.82;1.90;;;19.20;99.90;;;;;;4954695;29;20051;-71
2023/09/21 06:19:11;;;;;;;4.40;1.95;;;19.20;99.90;;;;;;4953857;29;20382;-70
2023/09/21 06:21:39;;;;;;;3.35;1.80;;;19.20;99.90;;;;;;4954545;29;20371;-71
2023/09/21 06:24:06;;;;;;;2.92;1.90;;;19.20;99.90;;;;;;4953895;29;20482;-71
2023/09/21 06:26:32;;;;;;;4.40;2.03;;;19.20;99.90;;;;;;4954488;29;20441;-71
2023/09/21 06:28:59;;;;;;;4.72;1.88;;;19.20;99.90;;;;;;4953965;29;20027;-70
2023/09/21 06:31:25;;;;;;;3.72;1.88;;;19.20;99.90;;;;;;4954359;29;20031;-70
2023/09/21 06:33:52;;;;;;;4.53;1.65;;;19.20;99.90;;;;;;4953658;29;20525;-70
2023/09/21 06:36:20;;;;;;;4.60;1.92;;;19.20;99.90;;;;;;4954312;29;20019;-71
2023/09/21 06:38:47;;;;;;;4.18;1.73;;;19.10;99.90;;;;;;4953539;29;20019;-71
2023/09/21 06:41:13;;;;;;;5.80;2.10;;;19.10;99.90;;;;;;4954167;29;20454;-70
2023/09/21 06:43:42;;;;;;;5.47;1.90;;;19.10;99.90;;;;;;4936422;29;20379;-70
2023/09/21 06:46:09;;;;;;;5.07;2.25;;;19.10;99.90;;;;;;4954196;29;20030;-71
2023/09/21 06:48:35;;;;;;;2.95;1.80;;;19.10;99.90;;;;;;4953633;29;20051;-70
2023/09/21 06:51:00;;;;;;;4.05;2.10;;;19.10;99.90;;;;;;4953953;29;20039;-70
2023/09/21 06:53:29;;;;;;;4.90;1.92;;;19.10;99.90;;;;;;4953741;29;20038;-71
2023/09/21 06:55:55;;;;;;;4.65;2.00;;;19.10;99.90;;;;;;4953918;29;20633;-71
2023/09/21 06:58:21;;;;;;;5.72;2.22;;;19.10;99.90;;;;;;4953660;29;20023;-71
2023/09/21 07:00:47;;;;;;;5.35;1.90;;;19.10;99.90;;;;;;4953767;29;20045;-71
2023/09/21 07:03:12;;;;;;;5.05;1.70;;;19.00;99.90;;;;;;4953651;29;20030;-70
2023/09/21 07:05:43;;;;;;;6.63;2.88;;;19.00;99.90;;;;;;4953619;29;20031;-70
2023/09/21 07:08:09;;;;;;;;;;;18.90;99.90;;;;;;4954279;28;20023;-70
2023/09/21 07:10:35;;;;;;;2.90;1.85;;;18.90;99.90;;;;;;4953455;29;19917;-70
2023/09/21 07:13:01;;;;;;;4.45;2.20;;;18.80;99.90;;;;;;4953863;29;20020;-70
2023/09/21 07:15:28;;;;;;;5.85;1.90;;;18.70;99.90;;;;;;4953201;29;20087;-70
2023/09/21 07:17:55;;;;;;;5.13;2.15;;;18.70;99.90;;;;;;4955783;28;20031;-70
2023/09/21 07:20:26;;;;;;;5.85;2.05;;;18.60;99.90;;;;;;4959612;28;20034;-70
2023/09/21 07:22:52;;;;;;;4.65;1.92;;;18.50;99.90;;;;;;4960371;28;20657;-70
2023/09/21 07:25:19;;;;;;;6.88;2.42;;;18.50;99.90;;;;;;4959681;29;20077;-70
2023/09/21 07:27:46;;;;;;;4.20;1.90;;;18.50;99.90;;;;;;4960214;29;20035;-70
2023/09/21 07:30:13;;;;;;;3.20;1.90;;;18.50;99.90;;;;;;4942172;29;20118;-70
2023/09/21 07:32:39;;;;;;;4.25;2.10;;;18.50;99.90;;;;;;4960179;28;20023;-70
2023/09/21 07:35:06;;;;;;;7.00;2.20;;;18.40;99.90;;;;;;4959554;29;20467;-70
2023/09/21 07:37:32;;;;;;;3.90;2.05;;;18.40;99.90;;;;;;4960149;28;20220;-70
2023/09/21 07:40:03;;;;;;;6.13;2.13;;;18.40;99.90;;;;;;4959249;29;20036;-70
2023/09/21 07:42:28;;;;;;;4.95;1.95;;;18.40;99.90;;;;;;4960090;28;20024;-70
2023/09/21 07:44:54;;;;;;;6.00;2.22;;;18.40;99.90;;;;;;4959325;28;20054;-70
2023/09/21 07:47:22;;;;;;;4.68;2.08;;;18.40;99.90;;;;;;4942729;29;20061;-70
2023/09/21 07:49:48;;;;;;;3.50;2.13;;;18.30;99.90;;;;;;4959587;29;20450;-70
2023/09/21 07:52:14;;;;;;;4.05;2.13;;;18.30;99.90;;;;;;4960007;29;20027;-70
2023/09/21 07:54:39;;;;;;;4.60;2.63;;;18.30;99.90;;;;;;4959310;28;20034;-70
2023/09/21 07:57:06;;;;;;;5.07;2.35;;;18.30;99.90;;;;;;4959850;29;20486;-70
2023/09/21 07:59:32;;;;;;;7.97;2.40;;;18.30;99.90;;;;;;4959208;29;20023;-70
2023/09/21 08:01:58;;;;;;;5.70;2.38;;;18.20;99.90;;;;;;4959867;28;20106;-70
2023/09/21 08:04:23;;;;;;;7.13;2.30;;;18.20;99.90;;;;;;4959442;29;20505;-70
2023/09/21 08:06:49;;;;;;;3.92;2.38;;;18.20;99.90;;;;;;4959992;28;20034;-70
2023/09/21 08:09:18;;;;;;;6.22;2.60;;;18.20;99.90;;;;;;4959174;29;20501;-70
2023/09/21 08:11:44;;;;;;;4.55;2.72;;;18.10;99.90;;;;;;4959699;29;20023;-70
2023/09/21 08:14:10;;;;;;;8.10;2.80;;;18.10;99.90;;;;;;4959031;29;20019;-70
2023/09/21 08:16:37;;;;;;;4.63;2.40;;;18.10;99.90;;;;;;4959657;29;20110;-70
2023/09/21 08:19:03;;;;;;;6.18;2.63;;;18.10;99.90;;;;;;4959231;28;20427;-70
2023/09/21 08:21:29;;;;;;;4.90;2.65;;;18.00;99.90;;;;;;4959684;28;20053;-70
2023/09/21 08:23:54;;;;;;;5.15;2.50;;;18.00;99.90;;;;;;4959224;28;20062;-70
2023/09/21 08:26:20;;;;;;;5.57;2.47;;;18.00;99.90;;;;;;4959481;28;20046;-70
2023/09/21 08:28:47;;;;;;;5.45;2.60;;;17.90;99.90;;;;;;4958806;28;20027;-70
2023/09/21 08:31:13;;;;;;;4.95;2.60;;;17.90;99.90;;;;;;4956306;29;20031;-70
2023/09/21 08:33:39;;;;;;;7.35;2.55;;;17.90;99.90;;;;;;4956034;29;20015;-70
2023/09/21 08:36:09;;;;;;;5.95;2.80;;;17.90;99.90;;;;;;4956438;29;20030;-71
2023/09/21 08:38:34;;;;;;;6.13;2.30;;;17.90;99.90;;;;;;4956393;29;20519;-71
2023/09/21 08:41:02;;;;;;;4.47;2.50;;;17.80;99.90;;;;;;4955949;29;20126;-70
2023/09/21 08:43:29;;;;;;;5.35;2.38;;;17.80;99.90;;;;;;4956522;29;20400;-71
2023/09/21 08:45:55;;;;;;;6.13;2.78;;;17.80;99.90;;;;;;4956984;29;20031;-70
2023/09/21 08:48:22;;;;;;;6.40;2.65;;;17.70;99.90;;;;;;4957511;29;20110;-71
2023/09/21 08:50:52;;;;;;;5.68;2.80;;;17.70;99.90;;;;;;4938272;29;20025;-71
2023/09/21 08:53:22;;;;;;;5.22;2.25;;;17.70;99.90;;;;;;4956299;29;20031;-71
2023/09/21 08:55:49;;;;;;;6.05;3.17;;;17.70;99.90;;;;;;4955513;29;20019;-71
2023/09/21 08:58:27;;;;;;;6.00;2.58;;;17.60;99.90;;;;;;4956463;29;20031;-70
2023/09/21 09:00:57;;;;;;;5.85;2.50;;;17.60;99.90;;;;;;4955572;29;20078;-71
2023/09/21 09:03:25;;;;;;;10.48;3.85;;;17.60;99.90;;;;;;4955852;29;20035;-71
2023/09/21 09:05:53;;;;;;;3.92;2.47;;;17.60;99.90;;;;;;4955481;29;20094;-71
2023/09/21 09:08:19;;;;;;;5.10;3.15;;;17.60;99.90;;;;;;4955870;28;20042;-71
2023/09/21 09:10:45;;;;;;;5.93;3.17;;;17.60;99.90;;;;;;4955233;29;20485;-71
2023/09/21 09:13:10;;;;;;;7.80;3.20;;;17.60;99.90;;;;;;4955943;29;20047;-71
2023/09/21 09:15:42;;;;;;;7.60;3.17;;;17.70;99.90;;;;;;4955414;29;20023;-71
2023/09/21 09:18:08;;;;;;;6.20;3.38;;;17.60;99.90;;;;;;4955773;29;20030;-71
2023/09/21 09:20:36;;;;;;;6.45;3.72;;;17.60;99.90;;;;;;4955231;29;20031;-71
2023/09/21 09:23:08;;;;;;;8.57;3.90;;;17.60;99.90;;;;;;4955745;29;20035;-71
2023/09/21 09:25:36;;;;;;;4.90;3.08;;;17.70;99.90;;;;;;4955229;29;20091;-71
2023/09/21 09:28:03;;;;;;;7.63;3.38;;;17.70;99.90;;;;;;4955549;29;20027;-71
2023/09/21 09:30:29;;;;;;;6.70;4.00;;;17.70;99.90;;;;;;4954890;29;20027;-70
2023/09/21 09:32:55;;;;;;;7.63;3.83;;;17.70;99.90;;;;;;4955569;29;20046;-71
2023/09/21 09:35:21;;;;;;;8.52;4.28;;;17.80;99.90;;;;;;4954925;29;20019;-71
2023/09/21 09:37:47;;;;;;;6.18;2.50;;;17.80;99.90;;;;;;4955368;29;20027;-71
2023/09/21 09:40:18;;;;;;;3.75;2.10;;;17.80;99.90;;;;;;4938015;28;20051;-71
2023/09/21 09:42:44;;;;;;;3.53;1.90;;;17.80;99.90;;;;;;4955185;28;20027;-71
2023/09/21 09:45:38;;;;;;;3.95;2.10;;;17.70;99.90;;;;;;4954795;28;20398;-71
2023/09/21 09:48:16;;;;;;;3.50;1.92;;;17.70;99.90;;;;;;4953962;29;20034;-71
2023/09/21 09:50:42;;;;;;;3.78;2.13;;;17.70;99.90;;;;;;4951120;28;20581;-71
2023/09/21 09:53:13;;;;;;;3.78;1.90;;;17.60;99.90;;;;;;4955262;29;20151;-70
2023/09/21 09:55:42;;;;;;;3.78;1.80;;;17.60;99.90;;;;;;4954482;28;20494;-71
2023/09/21 09:58:09;;;;;;;3.78;1.75;;;17.60;99.90;;;;;;4955082;28;20102;-71
2023/09/21 10:00:36;;;;;;;2.03;1.48;;;17.60;99.90;;;;;;4954329;28;20516;-71
2023/09/21 10:03:03;;;;;;;2.25;1.50;;;17.60;99.90;;;;;;4953590;29;20063;-71
2023/09/21 10:05:30;;;;;;;2.97;1.92;;;17.60;99.90;;;;;;4954225;28;20038;-71
2023/09/21 10:08:00;;;;;;;3.47;1.83;;;17.60;99.90;;;;;;4954953;28;20023;-70
2023/09/21 10:10:32;;;;;;;2.53;1.90;;;17.60;99.90;;;;;;4954241;28;20082;-70
2023/09/21 10:12:57;;;;;;;2.70;1.80;;;17.60;99.90;;;;;;4954902;28;20030;-70
2023/09/21 10:15:24;;;;;;;3.55;2.15;;;17.70;99.90;;;;;;4954071;29;20015;-71
2023/09/21 10:17:56;;;;;;;3.40;1.88;;;17.70;99.90;;;;;;4954698;28;20027;-71
2023/09/21 10:20:33;;;;;;;4.00;2.25;;;17.70;99.90;;;;;;4954334;28;20094;-71
2023/09/21 10:23:09;;;;;;;5.35;2.17;;;17.80;99.90;;;;;;4954648;28;20034;-71
2023/09/21 10:25:39;;;;;;;5.72;2.00;;;17.80;99.90;;;;;;4954088;28;20062;-71
2023/09/21 10:28:29;;;;;;;3.25;2.13;;;17.80;99.90;;;;;;4954618;28;20497;-71
2023/09/21 10:31:09;;;;;;;4.38;2.00;;;17.80;99.90;;;;;;4953886;28;20051;-71
2023/09/21 10:34:03;;;;;;;4.97;2.15;;;17.80;99.90;;;;;;4954237;28;20117;-71
2023/09/21 10:36:30;;;;;;;3.60;2.22;;;17.80;99.90;;;;;;4954439;28;20477;-71
2023/09/21 10:39:11;;;;;;;4.00;2.38;;;17.80;99.90;;;;;;4954152;28;20060;-71
2023/09/21 10:41:45;;;;;;;3.65;2.10;;;17.80;99.90;;;;;;4952690;29;20474;-71
2023/09/21 10:44:12;;;;;;;3.40;2.30;;;17.90;99.90;;;;;;4953914;28;20114;-71
2023/09/21 10:46:41;;;;;;;3.97;2.00;;;17.90;99.90;;;;;;4968807;28;20055;-70
2023/09/21 10:49:14;;;;;;;3.45;2.17;;;17.90;99.90;;;;;;4953712;29;20492;-71
2023/09/21 10:51:40;;;;;;;3.88;2.00;;;18.00;99.90;;;;;;4953868;28;20027;-71
2023/09/21 10:54:12;;;;;;;5.75;2.10;;;18.00;99.90;;;;;;4951677;28;20029;-71
2023/09/21 10:56:38;;;;;;;5.50;2.40;;;18.00;99.90;;;;;;4953939;28;20074;-71
2023/09/21 10:59:07;;;;;;;3.92;2.47;;;18.10;99.90;;;;;;4953777;28;20019;-71
2023/09/21 11:01:32;;;;;;;3.08;2.08;;;18.20;99.90;;;;;;4953846;28;20035;-71
2023/09/21 11:03:58;;;;;;;3.92;2.30;;;18.20;99.90;;;;;;4953974;29;20028;-71
2023/09/21 11:06:25;;;;;;;3.25;2.10;;;18.20;99.90;;;;;;4953558;28;20512;-71
2023/09/21 11:08:52;;;;;;;3.75;2.10;;;18.30;99.90;;;;;;4953901;28;20046;-71
2023/09/21 11:11:22;;;;;;;4.50;2.65;;;18.30;99.90;;;;;;4953296;28;20094;-71
2023/09/21 11:13:53;;;;;;;4.00;2.70;;;18.30;99.90;;;;;;4953889;28;20058;-71
2023/09/21 11:16:20;;;;;;;4.63;2.55;;;18.30;99.90;;;;;;4968032;28;20387;-71
2023/09/21 11:18:48;;;;;;;4.85;2.85;;;18.30;99.90;;;;;;4953810;28;20103;-70
2023/09/21 11:21:16;;;;;;;7.43;3.47;;;18.30;99.90;;;;;;4953386;28;20028;-71
2023/09/21 11:23:45;;;;;;;4.95;2.45;;;18.30;99.90;;;;;;4953884;28;20082;-71
2023/09/21 11:26:14;;;;;;;5.40;3.35;;;18.30;99.90;;;;;;4953147;28;20023;-71
2023/09/21 11:28:41;;;;;;;5.45;3.42;;;18.30;99.90;;;;;;4953794;28;20030;-71
2023/09/21 11:31:10;;;;;;;5.70;3.33;;;18.30;99.90;;;;;;4951838;29;20023;-71
2023/09/21 11:33:35;;;;;;;6.20;3.30;;;18.40;99.90;;;;;;4952662;29;20027;-71
2023/09/21 11:36:04;;;;;;;5.22;3.25;;;18.40;99.90;;;;;;4953278;28;20023;-71
2023/09/21 11:38:33;;;;;;;6.07;3.50;;;18.30;99.90;;;;;;4953709;28;20023;-71
2023/09/21 11:40:59;;;;;;;5.22;3.40;;;18.40;99.90;;;;;;4952906;28;20047;-71
2023/09/21 11:43:25;;;;;;;6.72;3.25;;;18.40;99.90;;;;;;4953910;29;20054;-71
2023/09/21 11:45:52;;;;;;;4.20;2.17;;;18.40;99.90;;;;;;4953021;29;20019;-71
2023/09/21 11:48:21;;;;;;;2.25;1.60;;;18.40;99.90;;;;;;4936453;29;20027;-71
2023/09/21 11:50:48;;;;;;;2.35;1.73;;;18.40;99.90;;;;;;4935599;29;20114;-71
2023/09/21 11:53:14;;;;;;;3.75;2.17;;;18.40;99.90;;;;;;4953595;29;20103;-71
2023/09/21 11:55:40;;;;;;;3.20;1.85;;;18.40;99.90;;;;;;4952918;29;20062;-71
2023/09/21 11:58:16;;;;;;;3.53;2.05;;;18.30;99.90;;;;;;4953541;29;20035;-71
2023/09/21 12:01:15;;;;;;;3.75;2.10;;;18.30;99.90;;;;;;4953104;29;20148;-71
2023/09/21 12:03:37;;;;;;;5.35;2.50;;;18.30;99.90;;;;;;4953339;28;20114;-71
2023/09/21 12:06:03;;;;;;;4.07;1.98;;;18.20;99.90;;;;;;4956594;29;20459;-71
2023/09/21 12:08:29;;;;;;;4.47;1.98;;;18.20;99.90;;;;;;4957089;28;20506;-71
2023/09/21 12:10:55;;;;;;;4.30;1.70;;;18.20;99.90;;;;;;4956473;29;20027;-71
2023/09/21 12:13:21;;;;;;;5.25;2.40;;;18.20;99.90;;;;;;4956961;29;20059;-71
2023/09/21 12:15:47;;;;;;;3.58;1.80;;;18.10;99.90;;;;;;4956211;29;20015;-71
2023/09/21 12:18:13;;;;;;;4.00;2.10;;;18.10;99.90;;;;;;4956968;29;20027;-71
2023/09/21 12:20:44;;;;;;;5.18;1.70;;;18.00;99.90;;;;;;4956217;29;20023;-71
2023/09/21 12:23:12;;;;;;;2.60;1.85;;;18.10;99.90;;;;;;4956888;29;20030;-71
2023/09/21 12:25:41;;;;;;;3.05;1.65;;;18.00;99.90;;;;;;4956203;29;20020;-71
2023/09/21 12:28:09;;;;;;;2.50;1.60;;;18.00;99.90;;;;;;4956722;29;20031;-71
2023/09/21 12:30:37;;;;;;;3.85;2.00;;;18.00;99.90;;;;;;4955925;29;20047;-71
2023/09/21 12:33:03;;;;;;;4.07;1.67;;;17.90;99.90;;;;;;4956702;29;20039;-71
2023/09/21 12:35:30;;;;;;;4.60;1.83;;;17.90;99.90;;;;;;4955978;29;20094;-71
2023/09/21 12:37:58;;;;;;;3.60;1.50;;;17.80;99.90;;;;;;4939329;29;20375;-71
2023/09/21 12:40:23;;;;;;;2.67;1.45;;;17.80;99.90;;;;;;4955773;29;20178;-71
2023/09/21 12:42:49;;;;;;;1.83;1.33;;;17.80;99.90;;;;;;4956515;29;20110;-71
2023/09/21 12:45:15;;;;;;;2.92;1.92;;;17.70;99.90;;;;;;4938605;29;20023;-71
2023/09/21 12:47:41;;;;;;;4.88;1.73;;;17.70;99.90;;;;;;4956401;29;20034;-71
2023/09/21 12:50:11;;;;;;;4.80;1.77;;;17.60;99.90;;;;;;4955372;29;20031;-70
2023/09/21 12:52:37;;;;;;;4.32;1.75;;;17.60;99.90;;;;;;4956214;29;20110;-71